Afrodite — CURM3 — position and weather

sailwx.info

Track history (hours):
 
Tides and Currents Weather Stations Pressure Air Temp Water Temp Dewpoint Dewpoint Depression Visibility Wind Speed Wind Dir Waves Ship Positions

Afrodite

Last reported at 2015-May-29 17:17 UTC. Time now 2015-May-30 20:33 UTC.
Position N 39°21' W 009°22'.

Length 26 m.

Type: Fishing. MMSI: 263500170.

Date/timePositionNaut miles runAvg speedWind from/ knotsBaromVisibWave heightAir tempDewpointWater temp
2015-May-29 17:17N 39°21' W 009°22'0 0.0
2015-May-29 16:31N 39°21' W 009°22'2 1.5
2015-May-29 15:28N 39°20' W 009°23'7 7.9
2015-May-29 14:33N 39°14' W 009°28'0 0.4
2015-May-29 13:33N 39°14' W 009°27'0 0.1
2015-May-29 12:33N 39°14' W 009°28'8 6.6
2015-May-29 11:16N 39°21' W 009°22'0 0.0
2015-May-28 22:05N 39°21' W 009°22'0 0.0
2015-May-28 21:33N 39°21' W 009°22'6 6.3
2015-May-28 20:33N 39°18' W 009°29'1 1.3
2015-May-28 19:26N 39°17' W 009°31'1 0.8
2015-May-28 18:33N 39°17' W 009°30'4 3.6
2015-May-28 17:33N 39°14' W 009°28'0 0.1
2015-May-28 16:33N 39°14' W 009°28'1 1.1
2015-May-28 15:32N 39°15' W 009°27'2 2.3
2015-May-28 14:33N 39°17' W 009°27'5 5.5
2015-May-28 13:33N 39°21' W 009°22'0 0.0
2015-May-27 22:32N 39°21' W 009°22'0 0.0
2015-May-27 21:34N 39°21' W 009°22'0 0.0
2015-May-27 20:26N 39°21' W 009°22'0 0.0
2015-May-27 19:32N 39°21' W 009°22'4 4.2
2015-May-27 18:33N 39°19' W 009°26'2 1.5
2015-May-27 17:33N 39°19' W 009°28'2 1.9
2015-May-27 16:30N 39°18' W 009°26'1 0.5
2015-May-27 15:26N 39°18' W 009°26'0 0.4
2015-May-27 14:33N 39°18' W 009°26'4 0.3
2015-May-26 21:33N 39°21' W 009°22'5 5.4
2015-May-26 20:33N 39°17' W 009°25'1 0.6
2015-May-26 19:33N 39°17' W 009°26'0 0.2
2015-May-26 18:33N 39°17' W 009°26'1 0.8
2015-May-26 17:33N 39°18' W 009°26'0 0.2
2015-May-26 16:33N 39°17' W 009°26'2 2.0
2015-May-26 15:34N 39°16' W 009°24'5 4.8
2015-May-26 14:33N 39°11' W 009°23'1 0.5
2015-May-26 13:34N 39°12' W 009°23'5 5.2
2015-May-26 12:33N 39°16' W 009°26'6 0.3
2015-May-25 18:17N 39°21' W 009°22'0 0.0
2015-May-25 17:33N 39°21' W 009°22'5 5.3
2015-May-25 16:33N 39°16' W 009°24'4 4.2
2015-May-25 15:33N 39°12' W 009°25'0 0.2
2015-May-25 14:33N 39°12' W 009°25'2 2.0
2015-May-25 13:33N 39°11' W 009°23'0 0.5
2015-May-25 12:33N 39°12' W 009°23'9 8.6
2015-May-25 11:33N 39°20' W 009°23'  
2015-May-22 22:24N 39°21' W 009°22'5 5.8
2015-May-22 21:33N 39°17' W 009°25'0 0.2
2015-May-22 20:31N 39°17' W 009°24'5 5.3
2015-May-22 19:33N 39°12' W 009°25'2 1.9
2015-May-22 18:33N 39°10' W 009°24'2 2.5
2015-May-22 17:33N 39°13' W 009°23'2 1.7
2015-May-22 16:33N 39°12' W 009°25'4 3.9
2015-May-22 15:33N 39°16' W 009°24'1 1.5
2015-May-22 14:33N 39°17' W 009°24'4 4.0
2015-May-22 13:32N 39°21' W 009°22'0 0.0
2015-May-21 16:10N 39°21' W 009°22'0 0.0
2015-May-21 15:33N 39°21' W 009°22'1 0.8
2015-May-21 14:33N 39°21' W 009°23'0 0.4
2015-May-21 13:33N 39°21' W 009°23'  
Track history (hours):
 
Tides and Currents Weather Stations Pressure Air Temp Water Temp Dewpoint Dewpoint Depression Visibility Wind Speed Wind Dir Waves Ship Positions

Afrodite

Last reported at 2015-May-29 17:17 UTC. Time now 2015-May-30 20:33 UTC.
Position N 39°21' W 009°22'.

Length 26 m.

Type: Fishing. MMSI: 263500170.

Date/timePositionNaut miles runAvg speedWind from/ knotsBaromVisibWave heightAir tempDewpointWater temp
2015-May-29 17:17N 39°21' W 009°22'0 0.0
2015-May-29 16:31N 39°21' W 009°22'2 1.5
2015-May-29 15:28N 39°20' W 009°23'7 7.9
2015-May-29 14:33N 39°14' W 009°28'0 0.4
2015-May-29 13:33N 39°14' W 009°27'0 0.1
2015-May-29 12:33N 39°14' W 009°28'8 6.6
2015-May-29 11:16N 39°21' W 009°22'0 0.0
2015-May-28 22:05N 39°21' W 009°22'0 0.0
2015-May-28 21:33N 39°21' W 009°22'6 6.3
2015-May-28 20:33N 39°18' W 009°29'1 1.3
2015-May-28 19:26N 39°17' W 009°31'1 0.8
2015-May-28 18:33N 39°17' W 009°30'4 3.6
2015-May-28 17:33N 39°14' W 009°28'0 0.1
2015-May-28 16:33N 39°14' W 009°28'1 1.1
2015-May-28 15:32N 39°15' W 009°27'2 2.3
2015-May-28 14:33N 39°17' W 009°27'5 5.5
2015-May-28 13:33N 39°21' W 009°22'0 0.0
2015-May-27 22:32N 39°21' W 009°22'0 0.0
2015-May-27 21:34N 39°21' W 009°22'0 0.0
2015-May-27 20:26N 39°21' W 009°22'0 0.0
2015-May-27 19:32N 39°21' W 009°22'4 4.2
2015-May-27 18:33N 39°19' W 009°26'2 1.5
2015-May-27 17:33N 39°19' W 009°28'2 1.9
2015-May-27 16:30N 39°18' W 009°26'1 0.5
2015-May-27 15:26N 39°18' W 009°26'0 0.4
2015-May-27 14:33N 39°18' W 009°26'4 0.3
2015-May-26 21:33N 39°21' W 009°22'5 5.4
2015-May-26 20:33N 39°17' W 009°25'1 0.6
2015-May-26 19:33N 39°17' W 009°26'0 0.2
2015-May-26 18:33N 39°17' W 009°26'1 0.8
2015-May-26 17:33N 39°18' W 009°26'0 0.2
2015-May-26 16:33N 39°17' W 009°26'2 2.0
2015-May-26 15:34N 39°16' W 009°24'5 4.8
2015-May-26 14:33N 39°11' W 009°23'1 0.5
2015-May-26 13:34N 39°12' W 009°23'5 5.2
2015-May-26 12:33N 39°16' W 009°26'6 0.3
2015-May-25 18:17N 39°21' W 009°22'0 0.0
2015-May-25 17:33N 39°21' W 009°22'5 5.3
2015-May-25 16:33N 39°16' W 009°24'4 4.2
2015-May-25 15:33N 39°12' W 009°25'0 0.2
2015-May-25 14:33N 39°12' W 009°25'2 2.0
2015-May-25 13:33N 39°11' W 009°23'0 0.5
2015-May-25 12:33N 39°12' W 009°23'9 8.6
2015-May-25 11:33N 39°20' W 009°23'  
2015-May-22 22:24N 39°21' W 009°22'5 5.8
2015-May-22 21:33N 39°17' W 009°25'0 0.2
2015-May-22 20:31N 39°17' W 009°24'5 5.3
2015-May-22 19:33N 39°12' W 009°25'2 1.9
2015-May-22 18:33N 39°10' W 009°24'2 2.5
2015-May-22 17:33N 39°13' W 009°23'2 1.7
2015-May-22 16:33N 39°12' W 009°25'4 3.9
2015-May-22 15:33N 39°16' W 009°24'1 1.5
2015-May-22 14:33N 39°17' W 009°24'4 4.0
2015-May-22 13:32N 39°21' W 009°22'0 0.0
2015-May-21 16:10N 39°21' W 009°22'0 0.0
2015-May-21 15:33N 39°21' W 009°22'1 0.8
2015-May-21 14:33N 39°21' W 009°23'0 0.4
2015-May-21 13:33N 39°21' W 009°23'  

Dump ship's entire track history